Detall de PIREP

Printer-friendly versionPDF version

[2011/03/29 07:27:00]
Flight IATA:CT2104
Pilot Number:041
Company ICAO:CAT
Aircraft Type:B463/A
PAX:64
Departing Airport: LEVC
Destination Airport: LEBB
Alternate Airport:LEVT
Online: VATSIM
Route:SOPET UN609 GEMAS UM601 PPN G23 CEGAM
Flight Level:F330
No Slew and time accel
No pause
Crash detect
Detect pilot in Cockpit between each 30 and 45 minutes
07:27 Zero fuel Weight: 71688 Lbs, Fuel Weight: 20575 Lbs
07:27 VATSIM:LEVC 290700Z 26009KT 9999 FEW040 15/09 Q1018 NOSIG
07:27 VATSIM:LEBB 290700Z 00000KT 9999 SCT025 BKN045 11/09 Q1019 NOSIG
07:27 VOICE CATALONIAN
07:30 Parking Brakes off
07:39 Take-off
07:39 Take off Weight: 91751 Lbs
07:39 Wind: 081º @ 002 Knots Heading: 296º
07:39 POS N39º 29´ 26´´ W000º 29´ 07´´
07:39 Gear Up: 190 Knots
07:39 Flaps:1 at 190 Knots
07:39 Flaps:0 at 251 Knots
07:54 Wind:226º@001 Knots Heading: 015º Ground Speed: 383 Knots Altitude 22985 ft
07:58 TOC
07:58 Fuel Weight: 17561 Lb
08:09 Wind:259º@001 Knots Heading: 295º Ground Speed: 388 Knots Altitude 33100 ft
08:18 TOD
08:18 Fuel Weight: 16055 Lb
08:24 Wind:243º@001 Knots Heading: 295º Ground Speed: 351 Knots Altitude 22139 ft
08:34 Flaps:1 at 203 Knots
08:35 Gear Down: 184 Knots
08:35 Gear Up: 184 Knots
08:35 Gear Down: 183 Knots
08:35 Flaps:2 at 176 Knots
08:36 Flaps:3 at 153 Knots
08:39 Wind:000º@000 Knots Heading: 297º Ground Speed: 148 Knots Altitude 1128 ft
08:40 TouchDown:Rate -79 ft/min Speed: 124 Knots
08:40 Flaps:0 at 116 Knots
08:40 VATSIM:LEBB 290830Z 00000KT 9999 SCT025 BKN035 13/10 Q1019 NOSIG
08:40 Land
08:40 Wind:000º@000 Knots
08:40 Heading: 296º
08:40 Flight Duration: 01:01
08:40 Landing Weight: 86957 Lbs
08:40 POS N43º 18´ 07´´ W002º 54´ 47´´
08:43 Parking brakes on
08:43 Block to Block Duration: 01:13
08:43 Final Fuel: 15158 Lbls
08:43 Spent Fuel: 5416 Lbls
08:43 Flight Length: 335 NM
08:43 TOD Land Length: 101 NM

Exportar CSV

Powered by Drupal - Modified by Danger4k